FW7275 Weather Reports


Display with metric or nautical units.
time (UTC)temp
F
wind
direction
speed
MPH
gust
MPH
rain 1hr
in
rain 24hr
in
rain mn
in
humidity
%
barometer
mb
20210301014039 26 180 0.0 0.0 0.00 0.00 0.01 89
20210301012030 26 180 0.0 1.0 0.00 0.00 0.01 88
20210301011025 26 180 0.0 0.0 0.00 0.00 0.01 88
20210301005333 27 180 0.0 2.0 0.00 0.00 0.01 88
20210301004032 27 203 0.0 0.0 0.00 0.00 0.01 88
20210301003028 27 203 0.0 1.0 0.00 0.00 0.01 88
20210301002030 27 203 0.0 1.0 0.00 0.00 0.01 88
20210301001027 27 203 0.0 0.0 0.00 0.00 0.01 88
20210228234034 28 203 0.0 0.0 0.00 0.00 0.01 88
20210228233042 28 248 0.0 0.0 0.00 0.00 0.01 88
20210228232037 28 248 0.0 1.0 0.00 0.00 0.01 87
20210228231025 28 248 0.0 2.0 0.00 0.00 0.01 86
20210228225128 29 68 0.0 0.0 0.00 0.00 0.01 86
20210228224024 29 68 0.0 0.0 0.00 0.00 0.01 86
20210228222029 29 68 0.0 0.0 0.00 0.00 0.01 85
20210228221035 29 68 0.0 1.0 0.00 0.00 0.01 84
20210228215128 30 68 0.0 0.0 0.00 0.00 0.01 86
20210228214035 30 68 0.0 1.0 0.00 0.00 0.01 85
20210228213039 30 68 0.0 1.0 0.00 0.00 0.01 85
20210228205222 31 68 0.0 0.0 0.00 0.00 0.01 83
20210228204022 31 68 0.0 1.0 0.00 0.00 0.01 83
20210228203029 32 68 0.0 0.0 0.00 0.00 0.01 81
20210228202035 32 68 0.0 0.0 0.00 0.00 0.01 81
20210228201025 32 68 0.0 0.0 0.00 0.00 0.01 80
20210228195032 33 68 0.0 0.0 0.00 0.00 0.01 80
20210228194034 34 68 0.0 0.0 0.00 0.00 0.01 79
20210228193051 34 68 0.0 1.0 0.00 0.00 0.01 78
20210228192025 35 68 0.0 2.0 0.00 0.00 0.01 77
20210228191034 36 68 0.0 1.0 0.00 0.00 0.01 75
20210228183115 40 68 1.0 2.0 0.00 0.00 0.01 69
20210228181041 40 68 0.0 2.0 0.00 0.00 0.01 69
20210228174023 42 45 1.0 3.0 0.00 0.00 0.01 67
20210228173033 42 68 1.0 3.0 0.00 0.00 0.01 66
20210228172022 43 68 1.0 3.0 0.00 0.00 0.01 66
20210228171030 43 68 1.0 4.0 0.00 0.00 0.01 65
20210228165031 44 68 2.0 6.0 0.00 0.00 0.01 63
20210228164033 45 68 2.0 6.0 0.00 0.00 0.01 63
20210228162025 46 68 2.0 6.0 0.00 0.00 0.01 61
20210228161031 46 68 3.0 7.0 0.00 0.00 0.01 61
20210228155040 46 68 3.0 10.0 0.00 0.00 0.01 61
20210228154029 47 68 4.0 8.0 0.00 0.00 0.01 61
20210228153042 47 68 3.0 8.0 0.00 0.00 0.01 61
20210228152026 47 45 3.0 8.0 0.00 0.00 0.01 61
20210228151025 47 68 4.0 9.0 0.00 0.00 0.01 61
20210228145027 47 68 3.0 8.0 0.00 0.00 0.01 61
20210228144033 47 68 3.0 8.0 0.00 0.00 0.01 61
20210228143121 47 68 4.0 8.0 0.00 0.00 0.01 61
20210228142026 48 68 4.0 10.0 0.00 0.00 0.01 60
20210228141020 47 68 4.0 10.0 0.00 0.00 0.01 61
20210228135020 47 90 3.0 8.0 0.00 0.00 0.01 61
20210228134023 48 23 3.0 9.0 0.00 0.00 0.01 61
20210228133119 48 68 4.0 12.0 0.00 0.00 0.01 60
20210228132034 48 68 5.0 12.0 0.00 0.00 0.01 57
20210228131028 48 68 5.0 10.0 0.00 0.00 0.01 55
20210228130037 48 68 4.0 8.0 0.00 0.00 0.01 56
20210228125025 49 68 4.0 10.0 0.00 0.00 0.01 57
20210228124025 48 68 5.0 11.0 0.00 0.00 0.01 58
20210228123107 47 113 5.0 11.0 0.00 0.00 0.01 61
20210228122024 47 68 5.0 11.0 0.00 0.00 0.01 60
20210228121021 48 90 5.0 11.0 0.00 0.00 0.01 61
20210228115417 47 68 3.0 9.0 0.00 0.00 0.01 61
20210228114036 47 45 4.0 11.0 0.00 0.00 0.01 63
20210228113057 47 68 2.0 7.0 0.00 0.00 0.01 63
20210228112025 46 68 4.0 8.0 0.00 0.00 0.01 64
20210228111035 46 68 4.0 10.0 0.00 0.00 0.01 65
20210228110030 46 90 4.0 9.0 0.00 0.00 0.01 66
20210228105044 46 90 5.0 11.0 0.00 0.00 0.01 66
20210228104022 46 90 4.0 7.0 0.00 0.00 0.01 65
20210228103107 45 68 3.0 7.0 0.00 0.00 0.01 68
20210228102025 45 90 5.0 12.0 0.00 0.00 0.01 68
20210228101026 45 68 5.0 10.0 0.00 0.00 0.01 67
20210228100054 44 113 5.0 13.0 0.00 0.00 0.00 68
20210228095039 45 68 4.0 8.0 0.00 0.00 0.00 67
20210228094028 45 68 4.0 10.0 0.00 0.00 0.00 67
20210228093045 45 90 3.0 6.0 0.00 0.00 0.00 68
20210228092021 44 68 3.0 8.0 0.00 0.00 0.00 71
20210228091020 44 68 3.0 9.0 0.00 0.00 0.00 70
20210228085214 42 68 4.0 8.0 0.00 0.00 0.00 73
20210228084030 41 90 4.0 8.0 0.00 0.00 0.00 73
20210228083027 41 68 5.0 10.0 0.00 0.00 0.00 74
20210228082023 41 90 4.0 9.0 0.00 0.00 0.00 75
20210228081034 39 90 4.0 8.0 0.00 0.00 0.00 77
20210228075102 37 90 2.0 4.0 0.00 0.00 0.00 80
20210228074025 39 360 0.0 1.0 0.00 0.00 0.00 77
20210228073035 37 360 0.0 0.0 0.00 0.00 0.00 81
20210228072026 36 360 0.0 0.0 0.00 0.00 0.00 81
20210228071028 35 360 0.0 0.0 0.00 0.00 0.00 81
20210228065026 31 360 0.0 0.0 0.00 0.00 0.00 87
20210228064029 28 360 0.0 0.0 0.00 0.00 0.00 92
20210228063251 26 360 0.0 1.0 0.00 0.00 0.00 92
20210228062026 25 360 0.0 0.0 0.00 0.00 0.12 92
20210228061021 24 360 0.0 0.0 0.00 0.00 0.12 92
20210228055056 24 360 0.0 0.0 0.00 0.00 0.12 91
20210228054023 24 360 0.0 0.0 0.00 0.00 0.12 91
20210228053138 24 360 0.0 0.0 0.00 0.00 0.12 91
20210228052030 24 360 0.0 0.0 0.00 0.00 0.12 91
20210228051020 24 360 0.0 0.0 0.00 0.00 0.12 91
20210228045027 24 360 0.0 0.0 0.00 0.00 0.12 91
20210228044032 25 360 0.0 0.0 0.00 0.00 0.12 92
20210228043025 25 360 0.0 0.0 0.00 0.00 0.12 92
20210228042023 25 360 0.0 0.0 0.00 0.00 0.12 91
20210228041018 25 360 0.0 1.0 0.00 0.00 0.12 91
20210228035027 25 360 0.0 1.0 0.00 0.00 0.12 91
20210228034107 25 360 0.0 0.0 0.00 0.00 0.12 90
20210228033031 25 360 0.0 0.0 0.00 0.00 0.12 90
20210228032023 25 360 0.0 0.0 0.00 0.00 0.12 90
20210228030038 25 360 0.0 0.0 0.00 0.00 0.12 91
20210228025129 25 360 0.0 0.0 0.00 0.00 0.12 91
20210228023033 25 360 0.0 0.0 0.00 0.00 0.12 91
20210228022029 26 360 0.0 0.0 0.00 0.00 0.12 90
20210228021030 26 360 0.0 0.0 0.00 0.00 0.12 90
20210228020032 26 360 0.0 0.0 0.00 0.00 0.12 91